Time;durP1;ratioP1;P1;durP2;ratioP2;P2;SDS_P1;SDS_P2;PMS_P1;PMS_P2;Temp;Humidity;BMP_temperature;BMP_pressure;BME280_temperature;BME280_humidity;BME280_pressure;Samples;Min_cycle;Max_cycle;Signal;HPM_P1;HPM_P2
2023/04/01 07:23:20;;;;;;;17.25;15.40;;;;;;;-145.79;100.00;76690.56;5252725;27;1918266;-69
2023/04/01 07:25:58;;;;;;;15.70;14.15;;;;;;;-145.79;100.00;76684.22;5300810;28;20032;-68
2023/04/01 07:28:33;;;;;;;18.77;15.70;;;;;;;-145.79;100.00;76688.44;5301050;28;20111;-69
2023/04/01 07:31:30;;;;;;;17.00;14.70;;;;;;;-145.79;100.00;76686.34;5299915;28;20036;-69
2023/04/01 07:34:26;;;;;;;17.40;15.68;;;;;;;-145.79;100.00;76688.44;5285184;28;20383;-69
2023/04/01 07:37:29;;;;;;;17.15;15.35;;;;;;;-145.79;100.00;76686.34;5279837;28;20025;-79
2023/04/01 07:40:09;;;;;;;16.45;13.68;;;;;;;-145.79;100.00;76673.63;5281346;28;20028;-76
2023/04/01 07:43:05;;;;;;;16.85;14.77;;;;;;;-145.79;100.00;76677.84;5280262;28;20060;-78
2023/04/01 07:45:53;;;;;;;16.48;14.45;;;;;;;-145.79;100.00;76675.75;5279646;28;20066;-74
2023/04/01 07:48:50;;;;;;;15.07;13.45;;;;;;;-145.79;100.00;76679.97;5291893;28;20020;-73
2023/04/01 07:51:28;;;;;;;18.52;15.75;;;;;;;-145.79;100.00;76679.97;5280434;28;20098;-74
2023/04/01 07:54:12;;;;;;;16.67;14.48;;;;;;;-145.79;100.00;76682.09;5278784;28;20456;-75
2023/04/01 07:56:52;;;;;;;17.95;16.05;;;;;;;-145.79;100.00;76688.44;5279169;28;20031;-70
2023/04/01 07:59:41;;;;;;;19.77;16.05;;;;;;;-145.79;100.00;76694.81;5289186;28;20024;-72
2023/04/01 08:02:33;;;;;;;20.50;16.95;;;;;;;-145.79;100.00;76690.56;5301250;28;20032;-72
2023/04/01 08:05:27;;;;;;;18.48;16.45;;;;;;;-145.79;100.00;76686.34;5299522;28;20070;-72
2023/04/01 08:08:06;;;;;;;20.15;14.98;;;;;;;-145.79;99.72;76701.16;5284131;28;20033;-74
2023/04/01 08:10:40;;;;;;;29.73;25.95;;;;;;;-145.79;99.82;76699.06;5279744;28;20474;-75
2023/04/01 08:13:29;;;;;;;33.17;29.67;;;;;;;-145.79;100.00;76686.34;5276428;28;20035;-75
2023/04/01 08:16:15;;;;;;;17.02;14.85;;;;;;;-145.79;99.93;76677.84;5287532;28;20039;-73
2023/04/01 08:18:58;;;;;;;15.63;14.02;;;;;;;-145.79;99.39;76669.38;5287800;28;20032;-74
2023/04/01 08:21:43;;;;;;;18.55;16.63;;;;;;;-145.79;98.94;76669.38;5287534;28;20056;-74
2023/04/01 08:24:37;;;;;;;19.85;15.05;;;;;;;-145.79;98.84;76671.50;5283541;28;20600;-72
2023/04/01 08:27:35;;;;;;;19.25;15.30;;;;;;;-145.79;98.62;76663.03;5288197;28;20479;-72
2023/04/01 08:30:18;;;;;;;21.67;15.93;;;;;;;-145.79;98.09;76663.03;5285485;28;20090;-73
2023/04/01 08:33:25;;;;;;;19.75;14.55;;;;;;;-145.79;98.19;76652.44;5283391;28;20024;-72
2023/04/01 08:35:59;;;;;;;;;;;;;;;-145.79;97.77;76650.31;5255480;28;20040;-73
2023/04/01 08:38:40;;;;;;;15.07;13.52;;;;;;;-145.79;97.18;76663.03;5272923;28;19912;-71
2023/04/01 08:41:35;;;;;;;16.40;13.77;;;;;;;-145.79;96.86;76673.63;5273406;28;20017;-71
2023/04/01 08:44:31;;;;;;;15.40;13.27;;;;;;;-145.79;96.57;76679.97;5274405;28;20074;-71
2023/04/01 08:47:39;;;;;;;14.70;12.55;;;;;;;-145.79;96.44;76673.63;5274253;28;20439;-72
2023/04/01 08:50:34;;;;;;;17.10;13.98;;;;;;;-145.79;96.51;76675.75;5274004;28;20029;-71
2023/04/01 08:53:36;;;;;;;15.05;12.73;;;;;;;-145.79;96.30;76682.09;5273643;28;20040;-71
2023/04/01 08:56:19;;;;;;;15.65;12.45;;;;;;;-145.79;96.51;76686.34;5274350;28;20109;-72
2023/04/01 08:59:17;;;;;;;16.85;13.20;;;;;;;-145.79;96.89;76671.50;5273184;28;20036;-72
2023/04/01 09:02:22;;;;;;;14.02;12.55;;;;;;;-145.79;96.22;76658.78;5268256;28;20496;-69
2023/04/01 09:05:32;;;;;;;15.18;13.35;;;;;;;-145.79;96.27;76656.66;5273325;28;20063;-70
2023/04/01 09:08:12;;;;;;;13.73;12.27;;;;;;;-145.79;95.18;76656.66;5270986;28;20430;-73
2023/04/01 09:11:08;;;;;;;12.85;10.95;;;;;;;-145.79;94.87;76688.44;5272090;28;20047;-73
2023/04/01 09:14:04;;;;;;;12.05;10.70;;;;;;;-145.79;95.18;76669.38;5274621;28;20454;-72
2023/04/01 09:16:58;;;;;;;13.82;12.27;;;;;;;-145.79;95.29;76667.25;5273912;28;20067;-71
2023/04/01 09:20:06;;;;;;;11.70;10.50;;;;;;;-145.79;95.49;76684.22;5272229;28;20033;-71
2023/04/01 09:23:08;;;;;;;11.95;9.70;;;;;;;-145.79;95.44;76673.63;5271323;28;20504;-71
2023/04/01 09:26:17;;;;;;;11.07;9.82;;;;;;;-145.79;95.47;76688.44;5273645;28;20033;-72
2023/04/01 09:29:02;;;;;;;10.55;9.45;;;;;;;-145.79;95.46;76682.09;5273506;28;20028;-71
2023/04/01 09:31:52;;;;;;;10.15;9.23;;;;;;;-145.79;96.26;76673.63;5272453;28;20039;-77
2023/04/01 09:34:51;;;;;;;10.77;9.68;;;;;;;-145.79;96.26;76679.97;5262993;28;20036;-78
2023/04/01 09:37:52;;;;;;;10.25;9.25;;;;;;;-145.79;95.33;76690.56;5262321;28;20033;-75
2023/04/01 09:40:54;;;;;;;9.95;8.95;;;;;;;-145.79;95.65;76694.81;5254121;28;20128;-75
2023/04/01 09:43:26;;;;;;;9.18;8.27;;;;;;;-145.79;95.88;76709.66;5261343;28;20126;-76
2023/04/01 09:46:35;;;;;;;8.43;7.63;;;;;;;-145.79;95.80;76699.06;5262297;28;20159;-76
2023/04/01 09:49:07;;;;;;;7.68;6.95;;;;;;;-145.79;95.11;76711.75;5263794;28;20025;-74
2023/04/01 09:51:52;;;;;;;9.50;8.60;;;;;;;-145.79;95.79;76716.00;5262500;28;20468;-73
2023/04/01 09:54:43;;;;;;;7.67;6.97;;;;;;;-145.79;95.29;76716.00;5262975;28;20025;-74
2023/04/01 09:57:39;;;;;;;8.60;7.70;;;;;;;-145.79;95.23;76716.00;5221297;28;20280;-75
2023/04/01 10:00:39;;;;;;;7.97;7.35;;;;;;;-145.79;95.67;76716.00;5262648;28;20040;-75
2023/04/01 10:03:41;;;;;;;8.68;7.78;;;;;;;-145.79;95.37;76730.84;5262926;28;20029;-74
2023/04/01 10:06:57;;;;;;;9.25;8.07;;;;;;;-145.79;95.40;76726.59;5259975;28;20064;-75
2023/04/01 10:09:47;;;;;;;8.40;7.60;;;;;;;-145.79;95.39;76726.59;5263970;28;20472;-72
2023/04/01 10:12:58;;;;;;;9.07;8.15;;;;;;;-145.79;95.43;76720.25;5260030;28;20536;-72
2023/04/01 10:15:53;;;;;;;9.27;8.48;;;;;;;-145.79;94.43;76728.72;5261050;28;20520;-73
2023/04/01 10:18:45;;;;;;;8.80;7.93;;;;;;;-145.79;94.39;76732.97;5260195;28;20033;-75
2023/04/01 10:21:47;;;;;;;10.48;9.07;;;;;;;-145.79;94.63;76732.97;5262634;28;20053;-75
2023/04/01 10:24:43;;;;;;;19.90;15.82;;;;;;;-145.79;94.84;76741.44;5263151;28;20040;-74
2023/04/01 10:27:41;;;;;;;11.43;10.35;;;;;;;-145.79;94.89;76741.44;5261766;28;20122;-75
2023/04/01 10:30:34;;;;;;;10.63;9.52;;;;;;;-145.79;94.54;76752.03;5262694;28;20075;-75
2023/04/01 10:33:26;;;;;;;11.07;10.02;;;;;;;-145.79;94.52;76749.91;5263028;28;20083;-75
2023/04/01 10:36:28;;;;;;;10.93;9.82;;;;;;;-145.79;94.50;76754.16;5262462;28;20545;-75
2023/04/01 10:39:08;;;;;;;12.20;10.95;;;;;;;-145.79;94.79;76754.16;5262633;28;20036;-75
2023/04/01 10:42:10;;;;;;;11.63;10.43;;;;;;;-145.79;94.22;76758.38;5281850;28;20069;-75
2023/04/01 10:44:50;;;;;;;11.95;10.85;;;;;;;-145.79;94.73;76754.16;5283197;28;20025;-74
2023/04/01 10:47:54;;;;;;;12.00;10.73;;;;;;;-145.79;94.66;76762.63;5280329;28;20054;-75
2023/04/01 10:50:56;;;;;;;15.32;12.65;;;;;;;-145.79;95.23;76769.00;5284098;28;20027;-75
2023/04/01 10:53:27;;;;;;;16.00;14.40;;;;;;;-145.79;95.32;76775.34;5282477;28;20029;-75
2023/04/01 10:56:11;;;;;;;12.07;10.82;;;;;;;-145.79;95.38;76771.09;5283441;28;20051;-75
2023/04/01 10:59:21;;;;;;;22.77;20.48;;;;;;;-145.79;95.15;76769.00;5259223;28;20421;-75
2023/04/01 11:02:27;;;;;;;14.35;12.85;;;;;;;-145.79;95.00;76773.22;5229897;28;20036;-75
2023/04/01 11:05:13;;;;;;;23.60;19.93;;;;;;;-145.79;95.03;76762.63;5261090;28;20096;-75
2023/04/01 11:08:03;;;;;;;16.63;12.20;;;;;;;-145.79;95.39;76779.59;5261203;28;20029;-75
2023/04/01 11:10:46;;;;;;;21.40;13.20;;;;;;;-145.79;95.59;76775.34;5261830;28;20056;-72
2023/04/01 11:13:24;;;;;;;13.43;12.02;;;;;;;-145.79;95.95;76783.81;5262802;28;20101;-71
2023/04/01 11:16:23;;;;;;;13.23;11.90;;;;;;;-145.79;96.40;76773.22;5279695;28;20033;-72
2023/04/01 11:19:18;;;;;;;15.75;12.98;;;;;;;-145.79;96.08;76790.19;5282848;28;20055;-72
2023/04/01 11:22:09;;;;;;;13.00;11.00;;;;;;;-145.79;96.36;76783.81;5281525;28;20063;-71
2023/04/01 11:24:46;;;;;;;14.65;12.85;;;;;;;-145.79;96.62;76781.69;5270005;28;20037;-75
2023/04/01 11:27:37;;;;;;;12.20;11.00;;;;;;;-145.79;95.90;76779.59;5261627;28;20037;-76
2023/04/01 11:30:28;;;;;;;13.00;11.57;;;;;;;-145.79;95.79;76775.34;5260524;28;20037;-77
2023/04/01 11:33:06;;;;;;;11.40;10.25;;;;;;;-145.79;95.47;76788.06;5262101;28;20041;-75
2023/04/01 11:36:24;;;;;;;13.50;12.20;;;;;;;-145.79;96.04;76771.09;5260693;28;20044;-72
2023/04/01 11:39:13;;;;;;;11.07;9.98;;;;;;;-145.79;95.76;76769.00;5262615;28;20044;-76
2023/04/01 11:42:01;;;;;;;47.38;43.08;;;;;;;-145.79;95.81;76775.34;5260607;28;20047;-70
2023/04/01 11:44:39;;;;;;;10.75;9.75;;;;;;;-145.79;95.90;76775.34;5259645;28;20024;-70
2023/04/01 11:47:32;;;;;;;28.27;25.40;;;;;;;-145.79;96.65;76783.81;5261945;28;20087;-70
2023/04/01 11:50:20;;;;;;;13.60;12.30;;;;;;;-145.79;96.20;76783.81;5258052;28;20067;-71
2023/04/01 11:53:10;;;;;;;11.15;10.07;;;;;;;-145.79;96.96;76785.94;5267799;28;20460;-70
2023/04/01 11:55:45;;;;;;;10.75;9.75;;;;;;;-145.79;97.27;76783.81;5268815;28;20056;-70
2023/04/01 11:58:38;;;;;;;14.60;13.15;;;;;;;-145.79;97.48;76773.22;5268552;28;20020;-70
2023/04/01 12:01:28;;;;;;;10.30;9.40;;;;;;;-145.79;97.22;76800.78;5268997;28;20532;-70
2023/04/01 12:04:33;;;;;;;11.38;10.38;;;;;;;-145.79;97.22;76800.78;5269468;28;20472;-72
2023/04/01 12:07:38;;;;;;;10.27;9.23;;;;;;;-145.79;97.28;76805.00;5271022;28;20799;-70
2023/04/01 12:10:25;;;;;;;21.38;17.80;;;;;;;-145.79;97.65;76800.78;5274190;28;20017;-69
2023/04/01 12:13:14;;;;;;;8.85;7.95;;;;;;;-145.79;97.31;76802.91;5266320;28;20033;-69
2023/04/01 12:16:09;;;;;;;13.70;12.38;;;;;;;-145.79;98.29;76790.19;5272644;28;20052;-70
2023/04/01 12:18:52;;;;;;;9.00;8.10;;;;;;;-145.79;97.54;76792.31;5273071;28;20028;-69
2023/04/01 12:21:41;;;;;;;21.13;19.02;;;;;;;-145.79;96.94;76785.94;5268544;28;20144;-70
2023/04/01 12:24:44;;;;;;;8.02;7.22;;;;;;;-145.79;96.91;76798.66;5276738;28;20159;-70
2023/04/01 12:27:43;;;;;;;8.10;7.30;;;;;;;-145.79;96.92;76800.78;5282041;28;20051;-69
2023/04/01 12:30:28;;;;;;;7.50;6.80;;;;;;;-145.79;97.21;76800.78;5258164;28;20063;-71
2023/04/01 12:33:24;;;;;;;7.57;6.88;;;;;;;-145.79;96.81;76811.38;5274580;28;20468;-68
2023/04/01 12:36:02;;;;;;;10.25;9.35;;;;;;;-145.79;97.17;76811.38;5271361;28;20032;-70
2023/04/01 12:39:11;;;;;;;12.20;11.00;;;;;;;-145.79;97.28;76805.00;5276039;28;20032;-70
2023/04/01 12:42:04;;;;;;;18.17;9.07;;;;;;;-145.79;96.49;76802.91;5267799;28;20052;-70
2023/04/01 12:45:14;;;;;;;7.80;7.00;;;;;;;-145.79;95.96;76805.00;5276640;28;20037;-70
2023/04/01 12:47:52;;;;;;;7.45;6.75;;;;;;;-145.79;95.81;76817.72;5269552;28;20025;-71
2023/04/01 12:50:42;;;;;;;7.43;6.72;;;;;;;-145.79;96.26;76807.13;5274330;28;20067;-70
2023/04/01 12:53:33;;;;;;;8.77;7.97;;;;;;;-145.79;96.41;76800.78;5267253;28;20587;-70
2023/04/01 12:56:18;;;;;;;9.65;8.48;;;;;;;-145.79;95.44;76819.84;5268679;28;20559;-70
2023/04/01 12:59:02;;;;;;;48.60;42.50;;;;;;;-145.79;95.52;76811.38;5272027;28;20100;-69
2023/04/01 13:01:58;;;;;;;10.15;9.15;;;;;;;-145.79;95.52;76815.63;5270265;28;20522;-67
2023/04/01 13:04:49;;;;;;;11.35;9.55;;;;;;;-145.79;95.21;76817.72;5269842;28;20033;-70
2023/04/01 13:08:07;;;;;;;9.88;8.90;;;;;;;-145.79;96.05;76813.50;5270851;28;20021;-70
2023/04/01 13:10:45;;;;;;;11.10;8.95;;;;;;;-145.79;95.52;76830.44;5245940;28;20467;-70
2023/04/01 13:14:21;;;;;;;8.35;7.47;;;;;;;-145.79;94.92;76838.94;5273053;28;20102;-71
2023/04/01 13:16:57;;;;;;;8.20;7.30;;;;;;;-145.79;95.24;76843.16;5172123;28;20105;-70
2023/04/01 13:19:38;;;;;;;8.20;7.40;;;;;;;-145.79;95.51;76855.88;5172713;28;20112;-69
2023/04/01 13:22:40;;;;;;;10.48;8.07;;;;;;;-145.79;96.03;76838.94;5237281;28;20052;-68
2023/04/01 13:25:50;;;;;;;8.57;7.75;;;;;;;-145.79;96.55;76832.56;5272165;28;20584;-70
2023/04/01 13:28:29;;;;;;;9.52;8.63;;;;;;;-145.79;96.46;76838.94;5270859;28;20033;-70
2023/04/01 13:31:05;;;;;;;15.00;13.35;;;;;;;-145.79;96.07;76851.63;5271912;28;20033;-69
2023/04/01 13:33:46;;;;;;;11.25;10.07;;;;;;;-145.79;96.48;76874.94;5271292;28;20414;-71
2023/04/01 13:36:41;;;;;;;8.60;7.70;;;;;;;-145.79;96.46;76860.13;5270451;28;20041;-70
2023/04/01 13:39:45;;;;;;;11.70;8.50;;;;;;;-145.79;96.78;76868.59;5270392;28;20063;-70
2023/04/01 13:42:28;;;;;;;16.00;14.43;;;;;;;-145.79;97.03;76870.72;5270777;28;20024;-70
2023/04/01 13:45:09;;;;;;;13.18;11.65;;;;;;;-145.79;96.54;76870.72;5272666;28;20090;-71
2023/04/01 13:47:50;;;;;;;7.78;7.07;;;;;;;-145.79;96.97;76874.94;5271923;28;20025;-71
2023/04/01 13:50:49;;;;;;;7.75;7.00;;;;;;;-145.79;97.51;76866.47;5272115;28;20032;-70
2023/04/01 13:53:51;;;;;;;8.38;7.55;;;;;;;-145.79;97.12;76877.06;5273097;28;20491;-70
2023/04/01 13:56:55;;;;;;;8.25;7.45;;;;;;;-145.79;97.61;76885.56;5271868;28;20113;-72
2023/04/01 13:59:46;;;;;;;8.20;7.35;;;;;;;-145.79;97.75;76872.84;5271608;28;20020;-70
2023/04/01 14:02:49;;;;;;;8.05;7.25;;;;;;;-145.79;97.44;76874.94;5272472;28;20043;-71
2023/04/01 14:05:41;;;;;;;8.13;7.00;;;;;;;-145.79;97.64;76881.31;5271410;28;20511;-70
2023/04/01 14:08:37;;;;;;;7.82;7.13;;;;;;;-145.79;97.10;76885.56;5272381;28;20040;-70
2023/04/01 14:11:52;;;;;;;43.50;39.05;;;;;;;-145.79;97.58;76885.56;5268980;28;20040;-70
2023/04/01 14:14:59;;;;;;;7.53;6.88;;;;;;;-145.79;96.54;76902.50;5264974;28;20048;-71
2023/04/01 14:17:35;;;;;;;;;;;;;;;-145.79;96.48;76900.38;5258170;28;20041;-72
2023/04/01 14:20:22;;;;;;;;;;;;;;;-145.79;95.90;76915.22;5280471;28;20054;-71
2023/04/01 14:23:14;;;;;;;18.02;16.20;;;;;;;-145.79;96.88;76927.94;5272434;28;19952;-71
2023/04/01 14:26:02;;;;;;;7.35;6.53;;;;;;;-145.79;97.56;76947.00;5278757;28;20048;-69
2023/04/01 14:29:05;;;;;;;6.55;5.95;;;;;;;-145.79;98.81;76957.59;5279668;28;20028;-70
2023/04/01 14:31:51;;;;;;;7.40;6.70;;;;;;;-145.79;98.55;76955.50;5236849;28;20040;-70
2023/04/01 14:35:10;;;;;;;7.30;6.70;;;;;;;-145.79;99.09;76947.00;5258629;28;20021;-70
2023/04/01 14:37:41;;;;;;;6.95;6.30;;;;;;;-145.79;99.07;76936.41;5260940;28;20033;-72
2023/04/01 14:40:40;;;;;;;7.80;7.07;;;;;;;-145.79;98.65;76932.19;5261264;28;20046;-74
2023/04/01 14:43:28;;;;;;;7.55;6.85;;;;;;;-145.79;98.44;76938.53;5261324;28;20150;-80
2023/04/01 14:46:23;;;;;;;7.90;7.20;;;;;;;-145.79;98.32;76923.69;5261748;28;20040;-74
2023/04/01 14:49:04;;;;;;;8.23;7.43;;;;;;;-145.79;97.96;76919.47;5277958;28;20082;-73
2023/04/01 14:51:40;;;;;;;8.38;7.45;;;;;;;-145.79;97.64;76923.69;5282596;28;20047;-72
2023/04/01 14:54:22;;;;;;;9.85;8.93;;;;;;;-145.79;98.20;76932.19;5280651;28;20033;-73
2023/04/01 14:57:14;;;;;;;9.23;8.35;;;;;;;-145.79;98.19;76947.00;5261948;28;20123;-72
2023/04/01 14:59:50;;;;;;;8.20;7.40;;;;;;;-145.79;98.45;76957.59;5260409;28;20036;-73
2023/04/01 15:03:10;;;;;;;36.42;32.75;;;;;;;-145.79;99.03;76944.91;5261116;28;20429;-74
2023/04/01 15:05:50;;;;;;;16.58;14.00;;;;;;;-145.79;98.45;76957.59;5259877;28;20029;-73
2023/04/01 15:08:38;;;;;;;37.08;33.30;;;;;;;-145.79;98.40;76951.25;5274271;28;20037;-72
2023/04/01 15:11:12;;;;;;;7.85;7.15;;;;;;;-145.79;98.33;76953.38;5280327;28;20382;-73
2023/04/01 15:14:06;;;;;;;8.48;7.53;;;;;;;-145.79;98.58;76955.50;5277000;28;20399;-72
2023/04/01 15:16:49;;;;;;;8.30;7.53;;;;;;;-145.79;98.14;76951.25;5232377;28;20595;-72
2023/04/01 15:19:39;;;;;;;9.20;8.30;;;;;;;-145.79;97.89;76966.09;5276800;28;20032;-73
2023/04/01 15:22:40;;;;;;;10.20;9.05;;;;;;;-145.79;97.75;76963.97;5281735;28;20381;-72
2023/04/01 15:25:28;;;;;;;9.00;8.20;;;;;;;-145.79;98.57;76959.72;5281927;28;20167;-70
2023/04/01 15:28:18;;;;;;;8.43;7.63;;;;;;;-145.79;97.99;76961.84;5280614;28;20128;-71
2023/04/01 15:30:58;;;;;;;9.38;8.48;;;;;;;-145.79;98.04;76970.31;5261704;28;20037;-72
2023/04/01 15:34:00;;;;;;;9.77;8.85;;;;;;;-145.79;98.16;76978.81;5274333;28;20163;-73
2023/04/01 15:36:51;;;;;;;26.70;24.23;;;;;;;-145.79;98.29;76980.94;5282054;28;20036;-73
2023/04/01 15:39:48;;;;;;;37.00;33.25;;;;;;;-145.79;98.28;76978.81;5282575;28;20020;-72
2023/04/01 15:42:35;;;;;;;10.90;9.82;;;;;;;-145.79;97.86;76995.75;5269484;28;20146;-73
2023/04/01 15:45:27;;;;;;;12.30;9.85;;;;;;;-145.79;98.81;76983.03;5265354;28;20025;-73
2023/04/01 15:48:11;;;;;;;10.98;9.88;;;;;;;-145.79;98.74;76980.94;5265710;28;20025;-73
2023/04/01 15:50:53;;;;;;;10.52;9.52;;;;;;;-145.79;98.25;76978.81;5264081;28;20166;-73
2023/04/01 15:53:44;;;;;;;9.88;8.88;;;;;;;-145.79;98.17;76980.94;5265819;28;20017;-74
2023/04/01 15:56:28;;;;;;;8.35;7.65;;;;;;;-145.79;98.24;76985.16;5265284;28;20067;-73
2023/04/01 15:59:13;;;;;;;10.43;9.38;;;;;;;-145.79;97.97;76980.94;5265796;28;20032;-74
2023/04/01 16:01:56;;;;;;;22.08;19.95;;;;;;;-145.79;98.02;76997.88;5271489;28;20044;-74
2023/04/01 16:04:55;;;;;;;9.20;8.40;;;;;;;-145.79;98.06;76997.88;5265104;28;20403;-74
2023/04/01 16:07:47;;;;;;;9.13;8.30;;;;;;;-145.79;98.13;76991.53;5265525;28;20174;-73
2023/04/01 16:10:35;;;;;;;8.30;7.55;;;;;;;-145.79;98.03;76989.41;5264670;28;20056;-73
2023/04/01 16:13:24;;;;;;;9.55;8.43;;;;;;;-145.79;97.68;77008.47;5264934;28;20021;-75
2023/04/01 16:16:14;;;;;;;8.10;7.32;;;;;;;-145.79;98.03;77014.84;5265340;28;20114;-75
2023/04/01 16:19:17;;;;;;;8.88;8.05;;;;;;;-145.79;98.05;77014.84;5283755;28;20491;-74
2023/04/01 16:21:53;;;;;;;8.75;7.88;;;;;;;-145.79;98.11;77008.47;5284217;28;20048;-74
2023/04/01 16:24:46;;;;;;;8.88;7.97;;;;;;;-145.79;98.35;77004.25;5284654;28;20044;-76
2023/04/01 16:27:41;;;;;;;8.20;7.50;;;;;;;-145.79;98.40;77006.34;5285648;28;20067;-76
2023/04/01 16:30:38;;;;;;;9.25;8.35;;;;;;;-145.79;98.05;77014.84;5285582;28;20032;-76
2023/04/01 16:33:22;;;;;;;10.85;9.57;;;;;;;-145.79;98.84;77012.72;5283937;28;20409;-76
2023/04/01 16:36:20;;;;;;;8.55;7.82;;;;;;;-145.79;98.61;77014.84;5285780;28;20035;-76
2023/04/01 16:39:22;;;;;;;8.15;7.35;;;;;;;-145.79;98.92;77023.31;5264233;28;20033;-76
2023/04/01 16:42:15;;;;;;;9.10;8.25;;;;;;;-145.79;98.91;77023.31;5264067;28;20044;-76
2023/04/01 16:45:16;;;;;;;9.23;8.32;;;;;;;-145.79;99.00;77027.56;5264549;28;20476;-76
2023/04/01 16:47:52;;;;;;;9.40;8.50;;;;;;;-145.79;99.13;77042.38;5263792;28;20083;-76
2023/04/01 16:50:30;;;;;;;11.73;10.52;;;;;;;-145.79;99.34;77052.97;5264461;28;20023;-76
2023/04/01 16:53:14;;;;;;;10.75;9.75;;;;;;;-145.79;100.00;77063.59;5263860;28;20047;-76
